HKNWHKJK

Guest
Details From HKNW - NAIROBI WILSON
To HKJK - Nairobi Jomo Kanyatta Intl
Flight Number -
Tags generated
Created
Modified
Stats Distance 7 nm / 13 km
Max Altitude 0 ft / 0 m
Waypoints 2
Social Downloads 4
Likes 0
Share VATSIM

Download

Looking for another format? Having issues loading an existing format? Contact us
Advertisement - Login to hide

Notes

Basic altitude profile: - Ascent Rate: 2500ft/min - Ascent Speed: 250kts - Cruise Altitude: 35000ft - Cruise Speed: 420kts - Descent Rate: 1500ft/min - Descent Speed: 250kts Options: - Use NATs: yes - Use PACOTS: yes - Use low airways: yes - Use high airways: yes

Route

HKNW HKJK

ID Type Via Altitude Latitude Longitude Leg Dist Tot Dist Heading (true) Name
O HKNW APT - 0 ft / 0 m -1.32314˚ 36.81470˚ - 0 nm - NAIROBI WILSON
O HKJK APT - 0 ft / 0 m -1.31707˚ 36.93076˚ 6 nm 6 nm 87° / 87° Nairobi Jomo Kanyatta Intl

Altitude Profile

Advertisement - Login to hide

HKNW

Details ICAO HKNW (WIL)
Name NAIROBI WILSON
Region Kenya
Timezone Africa/Nairobi (UTC+3.0)
Stats Elevation 5,546 ft / 1,690 m (AMSL)
Location -1.323145° 36.814695°
Runways 2
Magnetic Variation 0.595° E

METAR

HKNW 110900Z 07010KT 9999 BKN023 21/12 Q1023

Decode

TAF

Not found

Departure Runways

ID Width Length Bearing (true) Bearing (mag) Surface Threshold Offset Overrun Length
07 72 ft / 22 m 4,799 ft / 1,463 m 69.77° 69.18° Asphalt 0 ft / 0 m 0 ft / 0 m
14 76 ft / 23 m 5,065 ft / 1,544 m 134.15° 133.56° Asphalt 0 ft / 0 m 0 ft / 0 m
25 72 ft / 22 m 4,799 ft / 1,463 m 249.77° 249.18° Asphalt 0 ft / 0 m 0 ft / 0 m
32 76 ft / 23 m 5,065 ft / 1,544 m 314.15° 313.56° Asphalt 0 ft / 0 m 0 ft / 0 m

HKJK

Details ICAO HKJK (NBO)
Name Nairobi Jomo Kanyatta Intl
Region Kenya
Timezone Africa/Nairobi (UTC+3.0)
Stats Elevation 5,330 ft / 1,625 m (AMSL)
Location -1.317073° 36.930757°
Runways 1
Magnetic Variation 0.575° E

METAR

HKJK 110900Z 05012KT 9999 SCT024 21/12 Q1023

Decode

TAF

TAF TAF HKJK 110500Z 1106/1212 05010KT 9999 FEW021 BECMG 1108/1111 05015KT BKN025 BECMG 1120/1123 CAVOK TEMPO 1200/1206 FEW006 BKN090

Decode

Destination Runways

ID Width Length Bearing (true) Bearing (mag) Surface Threshold Offset Overrun Length
06 148 ft / 45 m 13,215 ft / 4,028 m 53.90° 53.32° Asphalt 0 ft / 0 m 194 ft / 59 m
24 148 ft / 45 m 13,215 ft / 4,028 m 233.90° 233.32° Asphalt 0 ft / 0 m 197 ft / 60 m

Approach Navaids

Runway Type Ident Frequency Range Bearing (true) Bearing (mag) Slope Elevation
06 Localiser INL 110.30 MHz 18 nm / 33 km 53.84° 53.26° - 5,278 ft / 1,609 m (AMSL)
06 Glidescope INL 110.30 MHz 10 nm / 19 km 53.90° 53.32° 3.00° 5,343 ft / 1,629 m (AMSL)

Popular Alternatives